Time;durP1;ratioP1;P1;durP2;ratioP2;P2;SDS_P1;SDS_P2;PMS_P1;PMS_P2;Temp;Humidity;BMP_temperature;BMP_pressure;BME280_temperature;BME280_humidity;BME280_pressure;Samples;Min_cycle;Max_cycle;Signal;HPM_P1;HPM_P2
2023/09/21 04:47:38;;;;;;;;;;;;;;;13.39;80.08;100436.11;110106;1273;22523;-41
2023/09/21 04:50:05;;;;;;;;;;;;;;;13.43;80.14;100435.71;109881;1265;22588;-42
2023/09/21 04:52:33;;;;;;;;;;;;;;;13.38;80.41;100432.60;109979;1266;22504;-43
2023/09/21 04:55:05;;;;;;;;;;;;;;;13.34;80.23;100434.58;109989;1273;22483;-42
2023/09/21 04:57:39;;;;;;;;;;;;;;;13.34;80.44;100430.36;109803;1273;23671;-45
2023/09/21 05:00:12;;;;;;;;;;;;;;;13.41;80.76;100435.20;110074;1272;22529;-43
2023/09/21 05:02:39;;;;;;;;;;;;;;;13.49;80.94;100434.60;110126;1273;22536;-43
2023/09/21 05:05:07;;;;;;;;;;;;;;;13.58;81.15;100437.84;109969;1260;22474;-43
2023/09/21 05:07:36;;;;;;;;;;;;;;;13.69;81.33;100440.01;110158;1267;23294;-43
2023/09/21 05:10:06;;;;;;;;;;;;;;;13.80;81.43;100439.02;109956;1259;23335;-47
2023/09/21 05:12:34;;;;;;;;;;;;;;;13.93;81.32;100440.45;109942;1274;22474;-48
2023/09/21 05:15:01;;;;;;;;;;;;;;;14.07;81.08;100444.32;109683;1272;22870;-43
2023/09/21 05:17:31;;;;;;;;;;;;;;;14.21;81.35;100440.83;110063;1272;22495;-43
2023/09/21 05:19:58;;;;;;;;;;;;;;;14.36;81.13;100443.61;110072;1273;22454;-42
2023/09/21 05:22:25;;;;;;;;;;;;;;;14.51;80.47;100448.35;110082;1267;22452;-43
2023/09/21 05:24:51;;;;;;;;;;;;;;;14.66;79.51;100446.55;110052;1272;22571;-45
2023/09/21 05:27:21;;;;;;;;;;;;;;;14.81;78.56;100446.52;109830;1272;23286;-45
2023/09/21 05:29:48;;;;;;;;;;;;;;;14.98;77.29;100446.27;109723;1272;22462;-48
2023/09/21 05:32:15;;;;;;;;;;;;;;;15.14;76.39;100447.23;109902;1268;22488;-43
2023/09/21 05:34:43;;;;;;;;;;;;;;;15.33;75.45;100445.67;109754;1267;22690;-44
2023/09/21 05:37:35;;;;;;;;;;;;;;;15.53;73.41;100446.58;109258;1272;22538;-50
2023/09/21 05:40:05;;;;;;;;;;;;;;;15.65;72.48;100445.49;108617;1273;25312;-44
2023/09/21 05:42:32;;;;;;;;;;;;;;;15.77;71.79;100446.16;109755;1268;22475;-51
2023/09/21 05:44:59;;;;;;;;;;;;;;;15.93;71.27;100443.91;108911;1269;23366;-43
2023/09/21 05:47:26;;;;;;;;;;;;;;;16.11;70.55;100445.84;109932;1269;22584;-43
2023/09/21 05:49:52;;;;;;;;;;;;;;;16.30;69.58;100448.09;109259;1267;22595;-43
2023/09/21 05:52:19;;;;;;;;;;;;;;;16.48;69.01;100446.82;109871;1272;22444;-42
2023/09/21 05:54:47;;;;;;;;;;;;;;;16.65;68.49;100447.33;109777;1271;22528;-49
2023/09/21 05:57:31;;;;;;;;;;;;;;;16.87;68.05;100448.80;108532;1275;22637;-48
2023/09/21 06:00:01;;;;;;;;;;;;;;;17.09;67.67;100446.52;108355;1277;22529;-49
2023/09/21 06:02:45;;;;;;;;;;;;;;;17.32;67.09;100444.17;108241;1279;22520;-43
2023/09/21 06:05:19;;;;;;;;;;;;;;;17.55;66.76;100446.40;108328;1278;24027;-44
2023/09/21 06:07:48;;;;;;;;;;;;;;;17.78;66.14;100444.05;108819;1273;24732;-49
2023/09/21 06:10:16;;;;;;;;;;;;;;;18.00;65.31;100443.63;109004;1269;24241;-43
2023/09/21 06:12:43;;;;;;;;;;;;;;;18.24;64.72;100442.91;109626;1272;22523;-42
2023/09/21 06:15:11;;;;;;;;;;;;;;;18.49;64.27;100442.90;109679;1260;22917;-48
2023/09/21 06:17:40;;;;;;;;;;;;;;;18.72;63.74;100444.34;109648;1272;22468;-43
2023/09/21 06:32:14;;;;;;;;;;;;;;;19.82;59.26;100453.23;109675;1275;22471;-45
2023/09/21 06:35:45;;;;;;;;;;;;;;;20.12;58.42;100456.60;109772;1274;23128;-50
2023/09/21 06:42:42;;;;;;;;;;;;;;;20.59;55.90;100453.06;109970;1278;23325;-44
2023/09/21 06:45:14;;;;;;;;;;;;;;;20.78;55.38;100455.31;110072;1270;22630;-44
2023/09/21 06:48:07;;;;;;;;;;;;;;;20.98;54.79;100453.46;110147;1263;22477;-44
2023/09/21 06:50:34;;;;;;;;;;;;;;;21.22;53.84;100454.08;110123;1277;22512;-46
2023/09/21 07:04:49;;;;;;;;;;;;;;;22.25;49.59;100453.21;110069;1268;22440;-43
2023/09/21 07:08:29;;;;;;;;;;;;;;;22.46;49.31;100450.08;110171;1277;23336;-43
2023/09/21 07:12:11;;;;;;;;;;;;;;;22.68;47.97;100450.12;109712;1270;22880;-44
2023/09/21 07:19:28;;;;;;;;;;;;;;;23.17;46.12;100451.31;109579;1277;22549;-50
2023/09/21 07:22:41;;;;;;;;;;;;;;;23.36;45.57;100442.91;109431;1272;23183;-43
2023/09/21 07:25:22;;;;;;;;;;;;;;;23.50;45.10;100440.41;109464;1272;22542;-50
2023/09/21 07:28:45;;;;;;;;;;;;;;;23.63;44.39;100446.52;109595;1267;23511;-50
2023/09/21 07:32:28;;;;;;;;;;;;;;;23.61;42.93;100446.07;109469;1275;22809;-50
2023/09/21 07:35:44;;;;;;;;;;;;;;;23.64;42.82;100441.12;109769;1276;22902;-45
2023/09/21 07:38:11;;;;;;;;;;;;;;;23.79;42.60;100441.59;109865;1268;22415;-46
2023/09/21 07:40:50;;;;;;;;;;;;;;;24.00;42.21;100439.61;109776;1272;23828;-44
2023/09/21 07:43:17;;;;;;;;;;;;;;;24.16;41.47;100436.75;109427;1265;22563;-50
2023/09/21 07:45:47;;;;;;;;;;;;;;;24.34;40.54;100437.62;109872;1273;22457;-50
2023/09/21 07:48:15;;;;;;;;;;;;;;;24.48;40.45;100438.80;109921;1272;22466;-50
2023/09/21 07:50:49;;;;;;;;;;;;;;;24.61;39.97;100441.09;109514;1257;22490;-45
2023/09/21 07:53:27;;;;;;;;;;;;;;;24.73;39.46;100437.41;109617;1275;22462;-50
2023/09/21 07:56:01;;;;;;;;;;;;;;;24.80;38.95;100435.77;108867;1272;22588;-43
2023/09/21 07:58:28;;;;;;;;;;;;;;;24.78;38.38;100435.68;108954;1279;22601;-50
2023/09/21 08:00:55;;;;;;;;;;;;;;;24.74;38.44;100434.51;109292;1270;23613;-51
2023/09/21 08:03:26;;;;;;;;;;;;;;;24.74;37.84;100430.74;109468;1273;22602;-48
2023/09/21 08:05:57;;;;;;;;;;;;;;;24.77;37.45;100431.11;109487;1279;22991;-43
2023/09/21 08:08:26;;;;;;;;;;;;;;;24.86;36.73;100433.23;109480;1278;22552;-48
2023/09/21 08:11:00;;;;;;;;;;;;;;;25.01;36.91;100432.08;109419;1272;22594;-43
2023/09/21 08:13:29;;;;;;;;;;;;;;;25.17;36.54;100430.42;109043;1265;22499;-49
2023/09/21 08:16:02;;;;;;;;;;;;;;;25.33;35.53;100425.75;109454;1273;22575;-49
2023/09/21 08:18:33;;;;;;;;;;;;;;;25.46;34.87;100426.36;109746;1272;22488;-49
2023/09/21 08:21:09;;;;;;;;;;;;;;;25.60;34.39;100419.49;109517;1278;22647;-49
2023/09/21 08:23:36;;;;;;;;;;;;;;;25.69;33.52;100421.98;109417;1275;22504;-44
2023/09/21 08:26:04;;;;;;;;;;;;;;;25.70;33.40;100425.33;109759;1274;22467;-44
2023/09/21 08:28:32;;;;;;;;;;;;;;;25.75;33.58;100417.53;109779;1272;22844;-44
2023/09/21 08:30:59;;;;;;;;;;;;;;;25.83;33.77;100422.77;109713;1279;22466;-49
2023/09/21 08:33:26;;;;;;;;;;;;;;;25.92;33.48;100418.29;109694;1276;22554;-50
2023/09/21 08:35:53;;;;;;;;;;;;;;;25.96;33.31;100417.98;108402;1273;23493;-44
2023/09/21 08:38:20;;;;;;;;;;;;;;;26.04;33.34;100409.52;109568;1271;22453;-45
2023/09/21 08:40:47;;;;;;;;;;;;;;;26.13;32.87;100411.63;109595;1272;23239;-44
2023/09/21 08:43:16;;;;;;;;;;;;;;;26.19;32.40;100407.66;109640;1278;22515;-44
2023/09/21 08:45:43;;;;;;;;;;;;;;;26.21;31.99;100413.79;109661;1278;22474;-47
2023/09/21 08:48:10;;;;;;;;;;;;;;;26.23;32.15;100411.83;109828;1273;22442;-44
2023/09/21 08:50:39;;;;;;;;;;;;;;;26.30;31.84;100411.60;109835;1279;22456;-44
2023/09/21 08:53:07;;;;;;;;;;;;;;;26.39;31.74;100405.70;109541;1269;22561;-44
2023/09/21 08:55:33;;;;;;;;;;;;;;;26.47;31.78;100409.81;109147;1274;22594;-44
2023/09/21 08:58:01;;;;;;;;;;;;;;;26.57;31.78;100410.24;109215;1274;22514;-44
2023/09/21 09:00:29;;;;;;;;;;;;;;;26.65;31.36;100409.70;108507;1276;23274;-50
2023/09/21 09:03:00;;;;;;;;;;;;;;;26.67;31.22;100413.70;109385;1276;25384;-45
2023/09/21 09:05:29;;;;;;;;;;;;;;;26.71;31.09;100412.89;108866;1278;22564;-44
2023/09/21 09:07:55;;;;;;;;;;;;;;;26.71;30.74;100412.41;109377;1279;23078;-50
2023/09/21 09:10:24;;;;;;;;;;;;;;;26.60;30.67;100408.98;108980;1272;22609;-44
2023/09/21 09:13:08;;;;;;;;;;;;;;;26.49;30.80;100406.68;109443;1279;22454;-44
2023/09/21 09:15:45;;;;;;;;;;;;;;;26.40;30.92;100403.27;109312;1275;22594;-43
2023/09/21 09:18:14;;;;;;;;;;;;;;;26.37;31.22;100403.08;108431;1275;22535;-42
2023/09/21 09:20:44;;;;;;;;;;;;;;;26.36;31.16;100400.83;109430;1276;23440;-45
2023/09/21 09:23:12;;;;;;;;;;;;;;;26.34;31.02;100404.01;109062;1276;23060;-50
2023/09/21 09:25:39;;;;;;;;;;;;;;;26.30;31.30;100407.66;109614;1278;22451;-49
2023/09/21 09:28:09;;;;;;;;;;;;;;;26.35;31.49;100411.98;109570;1279;23531;-49
2023/09/21 09:30:36;;;;;;;;;;;;;;;26.46;31.38;100406.66;109746;1279;23076;-50
2023/09/21 09:33:04;;;;;;;;;;;;;;;26.58;31.14;100408.60;109746;1275;22460;-44
2023/09/21 09:35:32;;;;;;;;;;;;;;;26.68;30.82;100406.71;109824;1276;22569;-45
2023/09/21 09:38:00;;;;;;;;;;;;;;;26.74;30.75;100403.96;109635;1279;23174;-50
2023/09/21 09:40:30;;;;;;;;;;;;;;;26.79;30.39;100402.20;109816;1273;22485;-44
2023/09/21 09:42:56;;;;;;;;;;;;;;;26.85;30.44;100399.31;109899;1278;23293;-44
2023/09/21 09:45:24;;;;;;;;;;;;;;;26.95;30.41;100396.70;109862;1273;23007;-44
2023/09/21 09:47:54;;;;;;;;;;;;;;;27.05;30.14;100394.58;109831;1272;22429;-43
2023/09/21 09:50:24;;;;;;;;;;;;;;;27.12;29.88;100389.83;109810;1272;22525;-50
2023/09/21 09:52:55;;;;;;;;;;;;;;;27.18;29.94;100392.13;109523;1279;23464;-49
2023/09/21 09:55:25;;;;;;;;;;;;;;;27.23;29.78;100394.98;109763;1279;23889;-51
2023/09/21 09:57:53;;;;;;;;;;;;;;;27.29;29.69;100391.50;109880;1272;22496;-51
2023/09/21 10:00:22;;;;;;;;;;;;;;;27.38;29.46;100387.15;109929;1279;22937;-44
2023/09/21 10:02:49;;;;;;;;;;;;;;;27.45;29.39;100385.42;109602;1270;22544;-44
2023/09/21 10:05:22;;;;;;;;;;;;;;;27.53;29.53;100382.73;109582;1273;22492;-44
2023/09/21 10:07:49;;;;;;;;;;;;;;;27.64;28.91;100382.14;109412;1277;22508;-45
2023/09/21 10:10:19;;;;;;;;;;;;;;;27.72;28.42;100372.85;109775;1273;22462;-49
2023/09/21 10:12:49;;;;;;;;;;;;;;;27.84;28.56;100370.70;109685;1276;23305;-46
2023/09/21 10:15:16;;;;;;;;;;;;;;;28.05;28.33;100372.64;109799;1273;23375;-44
2023/09/21 10:17:43;;;;;;;;;;;;;;;28.25;27.72;100372.29;109862;1279;22468;-44
2023/09/21 10:20:14;;;;;;;;;;;;;;;28.42;27.61;100364.39;109855;1279;23190;-47
2023/09/21 10:22:44;;;;;;;;;;;;;;;28.71;27.62;100363.00;109840;1275;22535;-45
2023/09/21 10:25:11;;;;;;;;;;;;;;;29.08;27.16;100355.71;109849;1275;22448;-43
2023/09/21 10:27:39;;;;;;;;;;;;;;;29.47;26.81;100355.98;109892;1279;22439;-44
2023/09/21 10:30:07;;;;;;;;;;;;;;;29.89;26.19;100348.03;109885;1279;22482;-47
2023/09/21 10:32:41;;;;;;;;;;;;;;;30.28;25.59;100346.70;109845;1278;22459;-46
2023/09/21 10:35:11;;;;;;;;;;;;;;;30.68;25.03;100350.74;109858;1263;22533;-44
2023/09/21 10:37:40;;;;;;;;;;;;;;;30.98;24.44;100348.08;109842;1279;22433;-44
2023/09/21 10:40:08;;;;;;;;;;;;;;;31.19;24.25;100348.11;109781;1263;22484;-44
2023/09/21 10:42:38;;;;;;;;;;;;;;;31.44;23.84;100344.16;109873;1270;23315;-51
2023/09/21 10:45:07;;;;;;;;;;;;;;;31.69;23.84;100340.52;109789;1274;22572;-50
2023/09/21 10:47:37;;;;;;;;;;;;;;;31.94;23.89;100342.38;109842;1276;23008;-50
2023/09/21 10:50:11;;;;;;;;;;;;;;;32.21;23.10;100339.92;109769;1273;22558;-51
2023/09/21 10:52:41;;;;;;;;;;;;;;;32.40;22.54;100338.81;109895;1279;22586;-50
2023/09/21 10:55:09;;;;;;;;;;;;;;;32.61;22.31;100337.79;109922;1277;22828;-45
2023/09/21 10:57:36;;;;;;;;;;;;;;;32.77;22.10;100336.82;109979;1276;22479;-51
2023/09/21 11:00:08;;;;;;;;;;;;;;;32.98;21.70;100329.69;109901;1278;22421;-44
2023/09/21 11:02:40;;;;;;;;;;;;;;;33.28;21.57;100321.58;109675;1273;23305;-47
2023/09/21 11:05:07;;;;;;;;;;;;;;;33.54;20.88;100325.27;109894;1274;22456;-46
2023/09/21 11:07:34;;;;;;;;;;;;;;;33.79;20.72;100317.27;109801;1277;22960;-45
2023/09/21 11:10:14;;;;;;;;;;;;;;;34.09;20.55;100315.99;109783;1273;22826;-44
2023/09/21 11:12:42;;;;;;;;;;;;;;;34.43;19.63;100313.48;109868;1272;22471;-44
2023/09/21 11:15:10;;;;;;;;;;;;;;;34.65;19.81;100312.02;109797;1270;22904;-44
2023/09/21 11:17:37;;;;;;;;;;;;;;;34.85;19.67;100311.98;109840;1274;22779;-44
2023/09/21 11:20:04;;;;;;;;;;;;;;;34.96;19.46;100308.67;109786;1274;23021;-45
2023/09/21 11:22:33;;;;;;;;;;;;;;;34.81;19.37;100306.75;109795;1275;22467;-44
2023/09/21 11:25:01;;;;;;;;;;;;;;;34.46;19.85;100309.21;109728;1273;23240;-43
2023/09/21 11:27:29;;;;;;;;;;;;;;;33.99;19.72;100311.66;109779;1277;23377;-44
2023/09/21 11:29:56;;;;;;;;;;;;;;;33.42;20.04;100310.11;109875;1270;22439;-44
2023/09/21 11:32:22;;;;;;;;;;;;;;;32.75;20.28;100312.10;109631;1261;22486;-50
2023/09/21 11:34:58;;;;;;;;;;;;;;;32.07;21.14;100310.14;109866;1274;22466;-49
2023/09/21 11:37:28;;;;;;;;;;;;;;;31.57;21.87;100306.95;109873;1274;22454;-49
2023/09/21 11:39:55;;;;;;;;;;;;;;;31.29;22.22;100300.82;109834;1279;23204;-50
2023/09/21 11:42:23;;;;;;;;;;;;;;;31.08;22.42;100298.84;109918;1273;22478;-49
2023/09/21 11:44:50;;;;;;;;;;;;;;;30.95;22.49;100297.39;109804;1273;22461;-50
2023/09/21 11:47:18;;;;;;;;;;;;;;;30.69;22.52;100297.41;109920;1273;22638;-52
2023/09/21 11:49:45;;;;;;;;;;;;;;;30.47;23.10;100297.24;109902;1279;23247;-51
2023/09/21 11:52:15;;;;;;;;;;;;;;;30.32;22.82;100294.20;109825;1272;22493;-51
2023/09/21 11:54:42;;;;;;;;;;;;;;;30.12;23.07;100298.71;109888;1278;22942;-51
2023/09/21 11:57:09;;;;;;;;;;;;;;;29.97;23.23;100294.15;109950;1273;22473;-51
2023/09/21 11:59:39;;;;;;;;;;;;;;;29.82;23.70;100291.59;109994;1276;23093;-44
2023/09/21 12:02:09;;;;;;;;;;;;;;;29.69;23.91;100286.69;110082;1272;22470;-44
2023/09/21 12:04:38;;;;;;;;;;;;;;;29.62;24.03;100288.02;110022;1272;22939;-44
2023/09/21 12:07:05;;;;;;;;;;;;;;;29.55;24.02;100283.14;110031;1270;22511;-44
2023/09/21 12:09:36;;;;;;;;;;;;;;;29.50;23.87;100282.48;109367;1273;22556;-45
2023/09/21 12:12:05;;;;;;;;;;;;;;;29.42;23.83;100280.20;110016;1273;22993;-44
2023/09/21 12:14:33;;;;;;;;;;;;;;;29.33;23.87;100274.95;110078;1272;22458;-44
2023/09/21 12:17:02;;;;;;;;;;;;;;;29.27;24.07;100274.34;109947;1270;23771;-45
2023/09/21 12:19:30;;;;;;;;;;;;;;;29.25;23.80;100275.98;109914;1271;23598;-43
2023/09/21 12:21:57;;;;;;;;;;;;;;;29.23;23.95;100276.63;109910;1278;23421;-44
2023/09/21 12:24:25;;;;;;;;;;;;;;;29.25;23.84;100276.67;109959;1266;22957;-44
2023/09/21 12:26:53;;;;;;;;;;;;;;;29.26;23.67;100269.59;109910;1273;22796;-51
2023/09/21 12:29:20;;;;;;;;;;;;;;;29.23;23.57;100269.30;109985;1272;22451;-51
2023/09/21 12:31:47;;;;;;;;;;;;;;;29.22;23.85;100267.42;110014;1269;22914;-51
2023/09/21 12:34:26;;;;;;;;;;;;;;;29.21;23.73;100269.29;110016;1273;22551;-50
2023/09/21 12:36:54;;;;;;;;;;;;;;;29.13;23.77;100265.95;110006;1271;23792;-50
2023/09/21 12:39:24;;;;;;;;;;;;;;;29.05;23.53;100266.38;110084;1272;23072;-49
2023/09/21 12:41:51;;;;;;;;;;;;;;;28.98;23.75;100264.92;110018;1273;22653;-48
2023/09/21 12:44:19;;;;;;;;;;;;;;;28.97;23.57;100265.79;110088;1271;22438;-50
2023/09/21 12:46:45;;;;;;;;;;;;;;;28.98;23.72;100261.35;110025;1272;22461;-49
2023/09/21 12:49:13;;;;;;;;;;;;;;;29.02;23.75;100261.10;110119;1271;22540;-49
2023/09/21 12:51:40;;;;;;;;;;;;;;;29.06;23.83;100260.55;110025;1276;23191;-50
2023/09/21 12:54:07;;;;;;;;;;;;;;;29.04;23.78;100261.26;110048;1266;22493;-45
2023/09/21 12:56:34;;;;;;;;;;;;;;;28.94;23.55;100260.04;110086;1278;22439;-45
2023/09/21 12:59:01;;;;;;;;;;;;;;;28.82;23.68;100261.30;110068;1278;22439;-50
2023/09/21 13:01:28;;;;;;;;;;;;;;;28.76;23.95;100262.29;110050;1278;22662;-49
2023/09/21 13:03:55;;;;;;;;;;;;;;;28.86;24.11;100256.18;110060;1278;22854;-45
2023/09/21 13:06:22;;;;;;;;;;;;;;;29.12;23.82;100255.79;110090;1277;22459;-45
2023/09/21 13:08:50;;;;;;;;;;;;;;;29.58;23.35;100253.96;110023;1278;22518;-42
2023/09/21 13:11:16;;;;;;;;;;;;;;;30.07;22.93;100253.60;110074;1275;22438;-44
2023/09/21 13:13:43;;;;;;;;;;;;;;;30.31;22.47;100246.41;110065;1273;22577;-43
2023/09/21 13:16:10;;;;;;;;;;;;;;;30.30;22.69;100246.54;110042;1278;22552;-45
2023/09/21 13:18:40;;;;;;;;;;;;;;;30.17;22.32;100246.52;110027;1278;22512;-44
2023/09/21 13:21:08;;;;;;;;;;;;;;;29.92;22.31;100253.00;110015;1278;22458;-49
2023/09/21 13:23:37;;;;;;;;;;;;;;;29.67;22.24;100252.53;110006;1278;22497;-50
2023/09/21 13:26:04;;;;;;;;;;;;;;;29.50;22.53;100250.62;110033;1278;23026;-49
2023/09/21 13:28:31;;;;;;;;;;;;;;;29.43;23.20;100253.15;110044;1278;23279;-44
2023/09/21 13:30:58;;;;;;;;;;;;;;;29.28;23.36;100251.67;110115;1278;23235;-49
2023/09/21 13:33:25;;;;;;;;;;;;;;;29.08;23.63;100247.88;110194;1278;23339;-43
2023/09/21 13:35:52;;;;;;;;;;;;;;;29.02;23.88;100245.80;108273;1278;25452;-43
2023/09/21 13:38:22;;;;;;;;;;;;;;;29.03;24.02;100244.27;107314;1278;25482;-44
2023/09/21 13:40:49;;;;;;;;;;;;;;;29.03;23.76;100246.23;109332;1278;22557;-49
2023/09/21 13:43:16;;;;;;;;;;;;;;;29.02;23.49;100242.38;110210;1273;22440;-45
2023/09/21 13:45:42;;;;;;;;;;;;;;;28.99;23.40;100240.84;110175;1278;22502;-44
2023/09/21 13:48:09;;;;;;;;;;;;;;;28.89;23.14;100238.71;110199;1278;23191;-45
2023/09/21 13:50:39;;;;;;;;;;;;;;;28.76;22.98;100235.73;110189;1278;23262;-44
2023/09/21 13:53:05;;;;;;;;;;;;;;;28.65;23.34;100238.91;110177;1266;22454;-44
2023/09/21 13:55:32;;;;;;;;;;;;;;;28.61;23.50;100238.17;110189;1278;22507;-44
2023/09/21 13:57:59;;;;;;;;;;;;;;;28.60;23.39;100238.75;110180;1278;23194;-44
2023/09/21 14:00:26;;;;;;;;;;;;;;;28.61;23.31;100235.63;110147;1272;22447;-44
2023/09/21 14:02:54;;;;;;;;;;;;;;;28.61;23.29;100232.95;110085;1278;22537;-44
2023/09/21 14:05:22;;;;;;;;;;;;;;;28.67;23.28;100234.66;108826;1279;26481;-44
2023/09/21 14:07:50;;;;;;;;;;;;;;;28.73;24.07;100229.73;107845;1277;23209;-44
2023/09/21 14:10:17;;;;;;;;;;;;;;;28.67;24.85;100232.14;108369;1275;22972;-49
2023/09/21 14:12:44;;;;;;;;;;;;;;;28.60;24.88;100233.04;108822;1267;22517;-45
2023/09/21 14:15:11;;;;;;;;;;;;;;;28.58;25.17;100229.39;108373;1278;22515;-43
2023/09/21 14:17:39;;;;;;;;;;;;;;;28.61;25.22;100232.39;110172;1278;22422;-44
2023/09/21 14:20:06;;;;;;;;;;;;;;;28.51;25.31;100230.89;110206;1272;22405;-49
